Time;durP1;ratioP1;P1;durP2;ratioP2;P2;SDS_P1;SDS_P2;PMS_P1;PMS_P2;Temp;Humidity;BMP_temperature;BMP_pressure;BME280_temperature;BME280_humidity;BME280_pressure;Samples;Min_cycle;Max_cycle;Signal;HPM_P1;HPM_P2
2022/06/08 00:02:12;;;;;;;3.45;0.40;;;27.60;40.00;;;;;;5100759;28;20040;-52
2022/06/08 00:04:39;;;;;;;1.27;0.10;;;27.60;40.00;;;;;;5112833;28;20039;-49
2022/06/08 00:07:06;;;;;;;4.07;0.30;;;27.60;40.00;;;;;;5104233;27;20040;-49
2022/06/08 00:09:35;;;;;;;2.67;0.30;;;27.60;39.90;;;;;;5100934;28;20152;-50
2022/06/08 00:12:02;;;;;;;2.30;0.10;;;27.60;39.90;;;;;;5099425;28;20040;-60
2022/06/08 00:14:29;;;;;;;0.47;0.10;;;27.50;39.90;;;;;;5102046;28;20040;-61
2022/06/08 00:16:57;;;;;;;0.82;0.32;;;27.50;40.00;;;;;;5101951;28;20047;-61
2022/06/08 00:19:24;;;;;;;1.65;0.20;;;27.50;40.10;;;;;;5099210;27;20035;-60
2022/06/08 00:21:52;;;;;;;0.63;0.10;;;27.40;40.10;;;;;;5105844;28;20118;-57
2022/06/08 00:24:19;;;;;;;3.28;0.20;;;27.40;40.10;;;;;;5099143;27;20043;-61
2022/06/08 00:26:47;;;;;;;3.22;0.10;;;27.40;40.20;;;;;;5105268;28;20114;-64
2022/06/08 00:29:15;;;;;;;0.90;0.25;;;27.30;40.20;;;;;;5102250;28;20095;-61
2022/06/08 00:31:43;;;;;;;5.47;0.38;;;27.30;40.30;;;;;;5107769;28;20054;-52
2022/06/08 00:34:10;;;;;;;1.50;0.10;;;27.20;40.40;;;;;;5078093;28;20465;-48
2022/06/08 00:36:38;;;;;;;0.32;0.10;;;27.20;40.50;;;;;;5106687;28;20583;-49
2022/06/08 00:39:05;;;;;;;5.70;0.60;;;27.20;40.50;;;;;;5094103;28;20046;-53
2022/06/08 00:41:43;;;;;;;1.02;0.10;;;27.20;40.70;;;;;;5095442;28;20056;-53
2022/06/08 00:44:18;;;;;;;1.95;0.10;;;27.30;40.70;;;;;;5077582;28;20058;-60
2022/06/08 00:46:45;;;;;;;1.27;0.10;;;27.20;40.80;;;;;;5088320;28;20122;-49
2022/06/08 00:49:22;;;;;;;2.67;0.43;;;27.20;41.00;;;;;;5107548;28;20032;-67
2022/06/08 00:51:49;;;;;;;3.00;0.30;;;27.30;41.10;;;;;;5104592;28;20071;-64
2022/06/08 00:54:22;;;;;;;1.50;0.28;;;27.20;41.10;;;;;;5107036;28;20503;-67
2022/06/08 00:56:53;;;;;;;1.38;0.38;;;27.20;41.40;;;;;;5108191;28;20124;-62
2022/06/08 00:59:22;;;;;;;0.20;0.10;;;27.20;41.50;;;;;;5097237;28;20468;-63
2022/06/08 01:01:49;;;;;;;1.67;0.40;;;27.20;41.70;;;;;;5096549;28;20440;-51
2022/06/08 01:04:19;;;;;;;2.65;0.20;;;27.20;41.80;;;;;;5089875;28;20051;-53
2022/06/08 01:06:57;;;;;;;3.88;0.10;;;27.10;41.80;;;;;;5079239;28;20119;-54
2022/06/08 01:09:33;;;;;;;3.63;0.15;;;27.20;42.00;;;;;;5083930;28;20035;-59
2022/06/08 01:12:03;;;;;;;2.15;0.20;;;27.20;42.20;;;;;;5101884;28;20035;-61
2022/06/08 01:14:36;;;;;;;3.00;0.20;;;27.20;42.20;;;;;;5085516;28;20515;-63
2022/06/08 01:17:06;;;;;;;4.38;0.10;;;27.20;42.20;;;;;;5082834;28;20684;-60
2022/06/08 01:19:36;;;;;;;0.88;0.15;;;27.20;42.30;;;;;;5089105;28;20047;-61
2022/06/08 01:22:06;;;;;;;2.33;0.15;;;27.30;42.30;;;;;;5083675;28;20519;-64
2022/06/08 01:24:41;;;;;;;4.82;0.22;;;27.40;42.30;;;;;;5083077;28;20511;-56
2022/06/08 01:27:28;;;;;;;3.28;0.40;;;27.50;42.00;;;;;;5103346;28;20533;-61
2022/06/08 01:30:09;;;;;;;1.38;0.32;;;27.70;41.90;;;;;;5081676;28;20601;-64
2022/06/08 01:32:40;;;;;;;1.38;0.22;;;27.80;41.60;;;;;;5103072;28;20075;-65
2022/06/08 01:35:19;;;;;;;1.30;0.10;;;27.90;41.40;;;;;;5101931;28;20131;-67
2022/06/08 01:38:07;;;;;;;2.92;0.10;;;28.10;41.10;;;;;;5107035;28;20089;-60
2022/06/08 01:40:57;;;;;;;3.15;0.57;;;28.30;40.80;;;;;;5063990;28;20052;-44
2022/06/08 01:43:35;;;;;;;2.55;0.40;;;28.30;40.40;;;;;;5081016;28;20082;-47
2022/06/08 01:46:17;;;;;;;5.18;0.25;;;28.40;40.40;;;;;;5085034;28;20083;-58
2022/06/08 01:49:11;;;;;;;2.78;0.30;;;28.40;40.20;;;;;;5101181;28;20043;-58
2022/06/08 01:51:49;;;;;;;1.98;1.20;;;28.40;40.10;;;;;;5088885;28;20074;-52
2022/06/08 01:54:30;;;;;;;2.22;0.10;;;28.40;40.30;;;;;;5104413;28;20051;-53
2022/06/08 01:57:07;;;;;;;3.45;0.35;;;28.40;40.30;;;;;;5088024;28;20047;-63
2022/06/08 01:59:43;;;;;;;2.20;0.68;;;28.30;40.40;;;;;;5076286;28;20365;-58
2022/06/08 02:02:18;;;;;;;4.50;0.50;;;28.30;40.30;;;;;;5071478;28;20120;-59
2022/06/08 02:04:50;;;;;;;;;;;28.20;40.40;;;;;;5090332;28;20051;-60
2022/06/08 02:07:23;;;;;;;2.30;0.30;;;28.10;40.70;;;;;;5079213;28;19924;-51
2022/06/08 02:09:56;;;;;;;0.95;0.40;;;28.10;41.00;;;;;;5082019;28;20074;-60
2022/06/08 02:12:24;;;;;;;2.70;0.55;;;28.10;41.00;;;;;;5078658;28;20043;-54
2022/06/08 02:14:57;;;;;;;2.50;0.30;;;28.00;41.00;;;;;;5068494;28;20655;-58
2022/06/08 02:17:32;;;;;;;2.40;0.20;;;28.00;41.20;;;;;;5091434;28;20673;-57
2022/06/08 02:20:07;;;;;;;2.10;0.20;;;27.90;41.40;;;;;;5086525;28;20035;-60
2022/06/08 02:22:39;;;;;;;1.95;0.45;;;28.00;41.70;;;;;;5082659;28;20031;-58
2022/06/08 02:25:17;;;;;;;3.00;0.20;;;27.90;41.80;;;;;;5079360;28;20036;-56
2022/06/08 02:27:49;;;;;;;3.25;0.52;;;27.90;42.00;;;;;;5082743;28;20127;-50
2022/06/08 02:30:21;;;;;;;1.95;0.32;;;27.90;42.10;;;;;;5083134;28;20043;-42
2022/06/08 02:35:40;;;;;;;3.28;0.25;;;27.80;42.40;;;;;;5079559;28;20142;-43
2022/06/08 02:38:11;;;;;;;3.58;0.20;;;27.60;43.30;;;;;;5086198;28;20036;-43
2022/06/08 02:40:45;;;;;;;4.00;0.28;;;27.40;42.90;;;;;;5079422;28;20496;-47
2022/06/08 02:43:18;;;;;;;2.28;0.13;;;27.20;42.90;;;;;;5080081;28;20044;-48
2022/06/08 02:45:50;;;;;;;2.50;0.10;;;27.00;43.20;;;;;;5084842;28;20516;-46
2022/06/08 02:48:17;;;;;;;2.38;0.17;;;26.90;43.80;;;;;;5084097;28;20415;-44
2022/06/08 02:50:52;;;;;;;4.28;0.45;;;26.70;43.90;;;;;;5086538;28;20180;-47
2022/06/08 02:53:55;;;;;;;2.20;0.20;;;26.60;44.50;;;;;;5057274;28;20610;-43
2022/06/08 02:56:34;;;;;;;2.15;0.75;;;26.50;44.50;;;;;;5085262;28;20056;-49
2022/06/08 02:59:09;;;;;;;1.85;0.20;;;26.30;44.70;;;;;;5089550;28;20063;-43
2022/06/08 03:01:43;;;;;;;3.03;0.15;;;26.20;44.90;;;;;;5096840;28;20048;-50
2022/06/08 03:04:15;;;;;;;4.93;0.57;;;26.20;45.50;;;;;;5085754;28;20071;-50
2022/06/08 03:06:51;;;;;;;4.70;0.47;;;26.10;45.70;;;;;;5077162;28;20093;-44
2022/06/08 03:09:19;;;;;;;1.88;0.47;;;26.00;46.10;;;;;;5078778;28;20040;-51
2022/06/08 03:11:57;;;;;;;4.57;0.20;;;25.90;46.30;;;;;;5084213;28;20407;-49
2022/06/08 03:14:24;;;;;;;2.67;0.32;;;25.90;46.60;;;;;;5069262;28;20040;-47
2022/06/08 03:16:55;;;;;;;4.25;0.38;;;25.80;46.70;;;;;;5073336;28;20242;-46
2022/06/08 03:19:23;;;;;;;2.97;0.13;;;25.70;47.20;;;;;;5081751;28;20033;-49
2022/06/08 03:21:53;;;;;;;1.83;0.10;;;25.70;47.40;;;;;;5085420;28;20040;-49
2022/06/08 03:24:21;;;;;;;6.63;0.77;;;25.70;47.60;;;;;;5093463;28;20481;-50
2022/06/08 03:26:52;;;;;;;3.33;0.28;;;25.70;47.80;;;;;;5093755;28;20032;-50
2022/06/08 03:29:19;;;;;;;4.07;0.35;;;25.60;47.90;;;;;;5082024;28;20036;-51
2022/06/08 03:31:47;;;;;;;3.83;0.43;;;25.60;47.80;;;;;;5087886;28;20035;-50
2022/06/08 03:34:15;;;;;;;5.43;0.90;;;25.50;48.00;;;;;;5083839;28;20120;-50
2022/06/08 03:36:43;;;;;;;2.95;0.20;;;25.40;48.10;;;;;;5085164;28;20036;-51
2022/06/08 03:39:10;;;;;;;4.40;0.77;;;25.40;49.10;;;;;;5085422;28;20493;-49
2022/06/08 03:41:39;;;;;;;6.70;0.60;;;25.30;48.40;;;;;;5087079;28;20046;-47
2022/06/08 03:44:07;;;;;;;3.08;0.10;;;25.30;48.70;;;;;;5098872;28;20036;-51
2022/06/08 03:46:38;;;;;;;2.70;0.22;;;25.30;49.20;;;;;;5099937;28;20506;-48
2022/06/08 03:49:06;;;;;;;3.28;0.30;;;25.30;49.30;;;;;;5090127;28;20059;-48
2022/06/08 03:51:34;;;;;;;5.50;0.47;;;25.30;50.10;;;;;;5081636;28;20128;-47
2022/06/08 03:54:06;;;;;;;1.42;0.45;;;25.20;49.50;;;;;;5093566;28;20077;-50
2022/06/08 03:56:36;;;;;;;3.38;0.40;;;25.20;49.60;;;;;;5101523;28;20047;-51
2022/06/08 03:59:04;;;;;;;1.73;0.10;;;25.20;49.90;;;;;;5105501;28;20130;-51
2022/06/08 04:01:34;;;;;;;5.18;0.20;;;25.20;50.30;;;;;;5084017;28;20043;-47
2022/06/08 04:04:03;;;;;;;3.10;0.30;;;25.20;50.40;;;;;;5086002;28;20040;-48
2022/06/08 04:06:32;;;;;;;3.20;0.13;;;25.20;50.60;;;;;;5085339;28;20544;-50
2022/06/08 04:09:01;;;;;;;3.60;0.50;;;25.20;50.50;;;;;;5087909;27;20046;-53
2022/06/08 04:11:33;;;;;;;8.02;0.45;;;25.20;50.50;;;;;;5079767;28;20542;-57
2022/06/08 04:14:01;;;;;;;2.20;0.47;;;25.30;50.60;;;;;;5079758;28;20051;-56
2022/06/08 04:16:29;;;;;;;2.65;0.35;;;25.30;50.60;;;;;;5086930;28;21463;-73
2022/06/08 04:19:01;;;;;;;3.05;0.43;;;25.30;50.60;;;;;;5098554;27;20044;-53
2022/06/08 04:21:32;;;;;;;3.42;0.40;;;25.40;50.80;;;;;;5088607;28;20061;-60
2022/06/08 04:24:04;;;;;;;10.07;0.55;;;25.50;50.70;;;;;;5098871;28;20036;-60
2022/06/08 04:26:32;;;;;;;3.28;0.45;;;25.50;50.90;;;;;;5077311;28;20181;-53
2022/06/08 04:29:14;;;;;;;3.20;0.10;;;25.50;51.10;;;;;;5079108;28;20371;-53
2022/06/08 04:31:42;;;;;;;1.67;0.10;;;25.70;51.10;;;;;;5092354;28;20040;-52
2022/06/08 04:34:19;;;;;;;2.25;0.13;;;25.70;50.80;;;;;;5094319;28;20531;-47
2022/06/08 04:36:46;;;;;;;1.27;0.52;;;25.80;50.50;;;;;;5084448;28;20048;-54
2022/06/08 04:39:15;;;;;;;1.85;0.22;;;25.90;50.30;;;;;;5089117;28;20151;-52
2022/06/08 04:42:02;;;;;;;3.40;0.57;;;26.00;50.10;;;;;;5099523;28;20039;-56
2022/06/08 04:44:36;;;;;;;1.70;0.17;;;26.10;49.70;;;;;;5086798;28;20044;-50
2022/06/08 04:47:08;;;;;;;3.08;0.20;;;26.20;49.40;;;;;;5087615;28;20036;-53
2022/06/08 04:49:38;;;;;;;1.05;0.10;;;26.30;49.20;;;;;;5083940;28;20051;-52
2022/06/08 04:52:06;;;;;;;1.65;0.10;;;26.40;48.90;;;;;;5084346;28;20041;-54
2022/06/08 04:54:35;;;;;;;2.00;0.10;;;26.50;48.60;;;;;;5085377;28;20039;-50
2022/06/08 04:57:02;;;;;;;2.92;0.13;;;26.70;48.40;;;;;;5086984;28;20423;-52
2022/06/08 04:59:30;;;;;;;0.93;0.10;;;26.80;48.20;;;;;;5087181;28;20138;-52
2022/06/08 05:02:07;;;;;;;1.70;0.28;;;26.90;48.20;;;;;;5089314;28;20044;-55
2022/06/08 05:04:37;;;;;;;1.92;0.10;;;27.00;48.00;;;;;;5093631;28;20120;-51
2022/06/08 05:07:07;;;;;;;2.40;0.10;;;27.10;47.70;;;;;;5089497;28;20046;-52
2022/06/08 05:09:36;;;;;;;1.17;0.20;;;27.10;47.40;;;;;;5077696;28;20577;-51
2022/06/08 05:12:05;;;;;;;2.95;0.10;;;27.20;47.30;;;;;;5080013;28;20046;-54
2022/06/08 05:14:33;;;;;;;2.55;0.20;;;27.30;47.30;;;;;;5072637;28;20043;-51
2022/06/08 05:17:00;;;;;;;4.50;0.75;;;27.40;47.10;;;;;;5087395;28;20752;-49
2022/06/08 05:19:28;;;;;;;1.30;0.10;;;27.40;46.80;;;;;;5096735;28;20047;-52
2022/06/08 05:21:58;;;;;;;0.63;0.20;;;27.50;46.70;;;;;;5080294;28;20306;-50
2022/06/08 05:24:28;;;;;;;1.27;0.20;;;27.60;46.40;;;;;;5077527;28;20070;-54
2022/06/08 05:26:55;;;;;;;1.15;0.13;;;27.60;46.30;;;;;;5090002;28;20081;-50
2022/06/08 05:29:23;;;;;;;1.70;0.43;;;27.60;46.10;;;;;;5069810;28;20051;-54
2022/06/08 05:31:55;;;;;;;1.70;0.03;;;27.70;46.10;;;;;;5082783;28;20115;-51
2022/06/08 05:34:25;;;;;;;0.95;0.35;;;27.80;46.10;;;;;;5091810;28;20044;-50
2022/06/08 05:36:54;;;;;;;0.75;0.10;;;27.80;45.80;;;;;;5075372;28;20094;-55
2022/06/08 05:39:25;;;;;;;1.10;0.00;;;27.80;45.50;;;;;;5081029;28;20504;-55
2022/06/08 05:41:52;;;;;;;0.55;0.20;;;27.90;45.40;;;;;;5079012;28;20051;-53
2022/06/08 05:44:21;;;;;;;0.45;0.10;;;27.90;45.20;;;;;;5067489;28;20089;-51
2022/06/08 05:46:52;;;;;;;0.55;0.10;;;27.90;45.00;;;;;;5080721;28;20420;-54
2022/06/08 05:49:19;;;;;;;1.02;0.13;;;28.00;44.90;;;;;;5079486;28;20047;-55
2022/06/08 05:51:49;;;;;;;0.43;0.10;;;28.00;44.90;;;;;;5074854;28;20044;-54
2022/06/08 05:54:21;;;;;;;2.67;0.00;;;28.00;44.90;;;;;;5074486;28;20416;-52
2022/06/08 05:56:50;;;;;;;0.30;0.10;;;28.10;45.00;;;;;;5071548;28;20032;-52
2022/06/08 05:59:20;;;;;;;0.25;0.10;;;28.10;44.70;;;;;;5074285;28;20087;-54
2022/06/08 06:01:48;;;;;;;0.17;0.10;;;28.10;44.70;;;;;;5101731;27;20139;-49
2022/06/08 06:04:15;;;;;;;1.30;0.10;;;28.10;44.70;;;;;;5084149;28;20052;-51
2022/06/08 06:06:46;;;;;;;1.67;0.03;;;28.10;44.60;;;;;;5082279;28;20565;-51
2022/06/08 06:09:17;;;;;;;0.10;0.10;;;28.10;44.70;;;;;;5079685;28;20188;-52
2022/06/08 06:11:45;;;;;;;0.20;0.00;;;28.10;44.80;;;;;;5078919;28;20101;-54
2022/06/08 06:14:15;;;;;;;1.20;0.00;;;28.10;44.70;;;;;;5081299;28;20035;-55
2022/06/08 06:16:45;;;;;;;0.63;0.15;;;28.10;44.50;;;;;;5084770;28;20043;-55
2022/06/08 06:19:13;;;;;;;0.20;0.00;;;28.10;44.40;;;;;;5087908;28;20036;-50
2022/06/08 06:21:52;;;;;;;0.73;0.10;;;28.10;44.30;;;;;;5083366;28;20093;-55
2022/06/08 06:24:37;;;;;;;0.40;0.05;;;28.10;44.40;;;;;;5077254;28;20128;-52
2022/06/08 06:27:17;;;;;;;0.85;0.20;;;28.10;44.30;;;;;;5096577;28;20142;-52
2022/06/08 06:30:21;;;;;;;1.85;0.05;;;28.00;44.20;;;;;;5077167;28;20678;-52
2022/06/08 06:33:10;;;;;;;0.68;0.20;;;28.00;44.30;;;;;;5072895;28;20123;-52
2022/06/08 06:35:38;;;;;;;3.25;0.10;;;28.00;44.20;;;;;;5088618;28;20096;-51
2022/06/08 06:38:08;;;;;;;3.47;0.13;;;28.00;44.20;;;;;;5070675;28;20036;-53
2022/06/08 06:40:38;;;;;;;0.10;0.03;;;28.00;44.20;;;;;;5089716;28;20048;-50
2022/06/08 06:43:06;;;;;;;0.20;0.05;;;27.90;44.10;;;;;;5088631;28;20085;-52
2022/06/08 06:45:38;;;;;;;0.10;0.00;;;27.90;44.10;;;;;;5090690;28;20051;-52
2022/06/08 06:48:14;;;;;;;0.30;0.00;;;27.90;44.10;;;;;;5074878;28;20084;-54
2022/06/08 06:50:43;;;;;;;0.43;0.00;;;27.90;44.10;;;;;;5071786;28;20054;-54
2022/06/08 06:53:12;;;;;;;0.73;0.00;;;27.90;44.10;;;;;;5072005;28;20036;-53
2022/06/08 06:55:44;;;;;;;0.50;0.00;;;27.90;44.10;;;;;;5088087;28;20040;-52
2022/06/08 06:58:20;;;;;;;1.90;0.00;;;27.90;44.20;;;;;;5091406;28;20039;-53
2022/06/08 07:00:49;;;;;;;0.00;0.00;;;27.80;44.10;;;;;;5075520;28;20215;-53
2022/06/08 07:03:18;;;;;;;1.00;0.00;;;27.80;44.20;;;;;;5083168;28;20125;-50
2022/06/08 07:05:48;;;;;;;0.45;0.43;;;27.80;44.20;;;;;;5074819;28;20112;-53
2022/06/08 07:08:16;;;;;;;0.00;0.00;;;27.80;44.30;;;;;;5083313;28;20044;-50
2022/06/08 07:11:32;;;;;;;0.10;0.00;;;27.90;44.30;;;;;;5076184;28;20134;-49
2022/06/08 07:13:32;;;;;;;0.00;0.00;;;27.80;44.20;;;;;;5080732;28;20040;-52
2022/06/08 07:16:00;;;;;;;0.10;0.00;;;27.80;44.30;;;;;;5085289;28;20055;-49
2022/06/08 07:18:28;;;;;;;1.85;0.00;;;27.80;44.40;;;;;;5077991;28;20101;-53
2022/06/08 07:20:55;;;;;;;0.30;0.00;;;27.80;44.40;;;;;;5079981;28;20116;-53
2022/06/08 07:23:22;;;;;;;0.20;0.05;;;27.80;44.50;;;;;;5092008;28;20097;-53
2022/06/08 07:25:50;;;;;;;0.20;0.10;;;27.70;45.10;;;;;;5096024;28;20847;-52
2022/06/08 07:28:17;;;;;;;1.17;0.08;;;27.70;44.60;;;;;;5092429;28;20051;-60
2022/06/08 07:30:44;;;;;;;0.68;0.03;;;27.70;44.70;;;;;;5094992;28;20079;-64
2022/06/08 07:33:13;;;;;;;0.03;0.03;;;27.70;45.00;;;;;;5095257;28;20620;-63
2022/06/08 07:35:40;;;;;;;0.73;0.00;;;27.70;45.70;;;;;;5097020;28;20049;-59
2022/06/08 07:38:08;;;;;;;0.10;0.00;;;27.70;45.20;;;;;;5105014;28;20134;-59
2022/06/08 07:40:35;;;;;;;0.55;0.00;;;27.70;45.30;;;;;;5084033;28;20067;-64
2022/06/08 07:43:03;;;;;;;0.30;0.00;;;27.70;45.30;;;;;;5106696;28;20064;-70
2022/06/08 07:45:30;;;;;;;0.10;0.00;;;27.70;45.20;;;;;;5101060;28;20865;-55
2022/06/08 07:50:44;;;;;;;1.45;0.00;;;27.80;45.20;;;;;;5102863;28;20051;-60
2022/06/08 07:53:12;;;;;;;0.65;0.00;;;27.90;45.10;;;;;;5106194;28;20052;-65
2022/06/08 07:55:39;;;;;;;1.77;0.00;;;28.00;45.10;;;;;;5100692;28;20116;-62
2022/06/08 07:58:07;;;;;;;0.00;0.00;;;28.00;45.00;;;;;;5102299;27;20737;-58
2022/06/08 08:00:35;;;;;;;2.03;0.00;;;28.10;45.00;;;;;;5102215;28;20047;-57
2022/06/08 08:03:03;;;;;;;1.60;0.00;;;28.20;45.10;;;;;;5095390;28;20032;-59
2022/06/08 08:05:31;;;;;;;2.15;0.10;;;28.20;44.90;;;;;;5107327;28;20054;-56
2022/06/08 08:07:59;;;;;;;2.20;0.10;;;28.20;45.00;;;;;;5096919;28;20090;-60
2022/06/08 08:10:27;;;;;;;1.95;0.10;;;28.20;45.10;;;;;;5103068;28;20097;-57
2022/06/08 08:12:55;;;;;;;0.50;0.00;;;28.20;45.10;;;;;;5099558;28;20509;-57
2022/06/08 08:15:24;;;;;;;0.00;0.00;;;28.20;45.10;;;;;;5103382;28;20457;-58
2022/06/08 08:17:51;;;;;;;1.27;0.00;;;28.30;45.20;;;;;;5091437;28;20044;-63
2022/06/08 08:20:21;;;;;;;4.30;0.65;;;28.30;45.20;;;;;;5095411;28;20131;-68
2022/06/08 08:22:48;;;;;;;0.10;0.00;;;28.40;45.20;;;;;;5092229;28;20693;-55
2022/06/08 08:25:17;;;;;;;0.68;0.32;;;28.40;45.20;;;;;;5106215;28;20036;-58
2022/06/08 08:27:46;;;;;;;0.55;0.00;;;28.50;45.30;;;;;;5105098;27;20428;-53
2022/06/08 08:30:15;;;;;;;0.08;0.00;;;28.50;45.30;;;;;;5097705;28;20042;-46
2022/06/08 08:32:42;;;;;;;0.50;0.00;;;28.50;45.30;;;;;;5075802;28;20039;-52
2022/06/08 08:35:10;;;;;;;1.08;0.00;;;28.50;45.30;;;;;;5095450;28;20036;-51
2022/06/08 08:37:38;;;;;;;0.98;0.00;;;28.50;45.30;;;;;;5091185;28;20056;-58
2022/06/08 08:40:08;;;;;;;0.30;0.00;;;28.50;45.30;;;;;;5080991;28;20569;-57
2022/06/08 08:42:37;;;;;;;0.47;0.00;;;28.50;45.30;;;;;;5090664;28;20117;-58
2022/06/08 08:45:11;;;;;;;0.55;0.55;;;28.50;45.30;;;;;;5099883;28;20044;-56
2022/06/08 08:47:49;;;;;;;0.10;0.10;;;28.50;45.40;;;;;;5101741;27;20073;-59
2022/06/08 08:50:20;;;;;;;0.00;0.00;;;28.60;45.50;;;;;;5099210;28;20123;-54
2022/06/08 08:52:52;;;;;;;0.20;0.10;;;28.60;45.40;;;;;;5098516;28;20505;-54
2022/06/08 08:55:28;;;;;;;0.75;0.00;;;28.60;45.70;;;;;;5102727;28;20047;-52
2022/06/08 08:58:03;;;;;;;0.60;0.00;;;28.60;45.90;;;;;;5105478;28;20040;-61
2022/06/08 09:00:37;;;;;;;0.00;0.00;;;28.60;45.80;;;;;;5104338;28;20059;-64
2022/06/08 09:03:20;;;;;;;0.00;0.00;;;28.60;45.70;;;;;;5107151;28;20516;-56
2022/06/08 09:05:51;;;;;;;0.10;0.10;;;28.60;45.60;;;;;;5075800;28;20048;-60
2022/06/08 09:08:21;;;;;;;0.90;0.00;;;28.60;45.60;;;;;;5109650;28;20050;-62
2022/06/08 09:10:49;;;;;;;0.10;0.00;;;28.60;45.50;;;;;;5103545;28;20059;-57
2022/06/08 09:13:23;;;;;;;0.10;0.00;;;28.60;45.60;;;;;;5108665;28;20046;-57
2022/06/08 09:15:54;;;;;;;0.43;0.10;;;28.70;45.70;;;;;;5106787;28;20134;-61
2022/06/08 09:18:31;;;;;;;0.00;0.00;;;28.70;45.70;;;;;;5102228;28;20567;-58
2022/06/08 09:20:59;;;;;;;0.10;0.03;;;28.70;45.80;;;;;;5096810;28;20221;-54
2022/06/08 09:23:38;;;;;;;0.60;0.00;;;28.70;45.80;;;;;;5098549;27;20601;-58
2022/06/08 09:26:10;;;;;;;0.75;0.00;;;28.70;45.70;;;;;;5104109;28;20371;-49
2022/06/08 09:28:39;;;;;;;0.40;0.00;;;28.70;45.80;;;;;;5102119;28;20054;-56
2022/06/08 09:31:22;;;;;;;0.10;0.00;;;28.70;45.90;;;;;;5090469;28;20163;-55
2022/06/08 09:33:50;;;;;;;0.08;0.08;;;28.70;46.00;;;;;;5089116;28;20066;-59
2022/06/08 09:36:26;;;;;;;0.00;0.00;;;28.70;46.10;;;;;;5097718;28;20146;-52
2022/06/08 09:38:54;;;;;;;;;;;28.70;45.90;;;;;;5102016;28;20127;-55
2022/06/08 09:41:26;;;;;;;0.80;0.00;;;28.70;45.90;;;;;;5093463;28;20009;-65
2022/06/08 09:44:19;;;;;;;7.03;0.30;;;28.70;45.60;;;;;;5092317;28;20044;-65
2022/06/08 09:52:53;;;;;;;1.42;0.10;;;28.50;46.00;;;;;;5096028;28;20123;-67
2022/06/08 09:55:34;;;;;;;2.55;0.20;;;28.40;46.20;;;;;;5102000;28;20067;-67
2022/06/08 09:58:14;;;;;;;1.55;0.10;;;28.30;46.30;;;;;;5095818;28;20040;-67
2022/06/08 10:00:49;;;;;;;5.13;0.30;;;28.30;46.60;;;;;;5096753;28;20040;-67
2022/06/08 10:03:29;;;;;;;2.15;0.10;;;28.20;46.70;;;;;;5091991;28;20067;-67
2022/06/08 10:06:03;;;;;;;1.17;0.10;;;28.10;46.80;;;;;;5093655;28;20040;-68
2022/06/08 10:08:40;;;;;;;0.00;0.00;;;28.10;46.90;;;;;;5091190;28;20043;-67
2022/06/08 10:13:58;;;;;;;0.00;0.00;;;27.90;47.00;;;;;;5100543;28;20035;-67
2022/06/08 10:16:32;;;;;;;2.17;0.00;;;27.80;47.10;;;;;;5102854;28;20067;-67
2022/06/08 10:19:05;;;;;;;1.33;0.10;;;27.80;47.20;;;;;;5103420;28;20043;-67
2022/06/08 10:21:36;;;;;;;2.85;0.20;;;27.80;47.40;;;;;;5102207;28;20054;-67
2022/06/08 10:24:16;;;;;;;3.08;0.13;;;27.70;47.50;;;;;;5101758;28;20495;-67
2022/06/08 10:26:48;;;;;;;1.55;0.00;;;27.70;47.70;;;;;;5082016;28;20115;-65
2022/06/08 10:29:21;;;;;;;0.10;0.00;;;27.70;47.70;;;;;;5102239;28;20040;-66
2022/06/08 10:31:56;;;;;;;1.23;0.00;;;27.70;47.80;;;;;;5104077;28;20268;-65
2022/06/08 10:34:27;;;;;;;0.25;0.00;;;27.60;47.70;;;;;;5102816;28;20071;-65
2022/06/08 10:36:57;;;;;;;2.83;0.00;;;27.60;47.70;;;;;;5081720;28;20044;-65
2022/06/08 10:39:27;;;;;;;0.85;0.10;;;27.60;47.70;;;;;;5099528;28;20060;-67
2022/06/08 10:45:31;;;;;;;0.10;0.10;;;27.50;47.60;;;;;;5094529;28;20578;-67
2022/06/08 10:48:01;;;;;;;1.85;0.20;;;27.40;47.70;;;;;;5091632;28;20035;-67
2022/06/08 10:50:31;;;;;;;2.60;0.10;;;27.40;47.80;;;;;;5088953;28;20537;-66
2022/06/08 10:56:47;;;;;;;0.10;0.00;;;27.30;48.50;;;;;;5094128;28;20150;-67
2022/06/08 10:59:18;;;;;;;1.98;0.55;;;27.30;48.00;;;;;;5088006;28;20032;-67
2022/06/08 11:01:56;;;;;;;0.77;0.10;;;27.30;48.00;;;;;;5080394;28;20064;-66
2022/06/08 11:04:51;;;;;;;0.15;0.10;;;27.30;48.00;;;;;;5102110;28;20032;-65
2022/06/08 11:07:22;;;;;;;0.65;0.00;;;27.30;48.10;;;;;;5093358;28;20269;-66
2022/06/08 11:09:59;;;;;;;0.40;0.05;;;27.20;48.20;;;;;;5099857;28;20131;-66
2022/06/08 11:12:54;;;;;;;3.28;0.43;;;27.30;48.40;;;;;;5099867;28;20074;-66
2022/06/08 11:15:39;;;;;;;0.85;0.10;;;27.30;48.40;;;;;;5035158;28;20044;-65
2022/06/08 11:18:17;;;;;;;0.08;0.08;;;27.30;48.40;;;;;;5035331;28;20121;-65
2022/06/08 11:20:48;;;;;;;0.73;0.00;;;27.20;48.40;;;;;;5035819;28;20480;-66
2022/06/08 11:23:22;;;;;;;1.35;0.10;;;27.20;48.40;;;;;;5039698;28;20061;-67
2022/06/08 11:25:52;;;;;;;0.52;0.10;;;27.20;48.50;;;;;;5029625;28;20161;-65
2022/06/08 11:28:40;;;;;;;1.42;0.28;;;27.20;48.60;;;;;;5039947;28;20057;-65
2022/06/08 11:31:12;;;;;;;0.47;0.10;;;27.20;48.60;;;;;;5033094;28;20548;-65
2022/06/08 11:34:12;;;;;;;0.10;0.00;;;27.20;48.80;;;;;;5030894;28;20136;-64
2022/06/08 11:36:54;;;;;;;0.90;0.20;;;27.20;48.60;;;;;;5043309;28;20599;-65
2022/06/08 11:39:27;;;;;;;0.40;0.17;;;27.20;48.60;;;;;;5036536;28;20137;-65
2022/06/08 11:42:02;;;;;;;0.45;0.00;;;27.20;48.60;;;;;;5033957;28;20044;-65
2022/06/08 11:44:35;;;;;;;0.35;0.00;;;27.30;48.60;;;;;;5029758;28;20041;-65
2022/06/08 11:47:06;;;;;;;0.35;0.03;;;27.30;48.60;;;;;;5035543;28;20057;-66
2022/06/08 11:49:38;;;;;;;0.63;0.10;;;27.30;48.60;;;;;;5037817;28;20467;-65
2022/06/08 11:52:25;;;;;;;0.10;0.10;;;27.30;48.60;;;;;;5065339;28;20387;-66
2022/06/08 11:55:00;;;;;;;0.82;0.10;;;27.30;48.50;;;;;;5102989;28;20472;-65
2022/06/08 11:57:28;;;;;;;0.13;0.00;;;27.30;48.60;;;;;;5098007;27;20512;-66
2022/06/08 11:59:58;;;;;;;0.70;0.10;;;27.30;48.60;;;;;;5093198;28;20044;-68
2022/06/08 12:02:27;;;;;;;0.20;0.10;;;27.30;48.60;;;;;;5094065;28;20048;-65
2022/06/08 12:04:58;;;;;;;0.10;0.00;;;27.30;48.60;;;;;;5099075;28;20495;-66
2022/06/08 12:07:41;;;;;;;0.22;0.10;;;27.30;48.60;;;;;;5096142;28;20076;-65
2022/06/08 12:10:13;;;;;;;0.15;0.08;;;27.40;48.50;;;;;;5087351;28;20404;-65
2022/06/08 12:12:43;;;;;;;1.65;0.10;;;27.40;48.50;;;;;;5100789;28;20032;-65
2022/06/08 12:15:51;;;;;;;0.45;0.00;;;27.40;48.40;;;;;;5094836;28;20048;-65
2022/06/08 12:18:42;;;;;;;0.17;0.10;;;27.40;48.30;;;;;;5098432;28;20108;-65
2022/06/08 12:21:29;;;;;;;0.55;0.10;;;27.40;48.30;;;;;;5100211;28;20048;-65
2022/06/08 12:24:00;;;;;;;0.20;0.10;;;27.40;48.30;;;;;;5095837;28;20119;-66
2022/06/08 12:26:36;;;;;;;0.63;0.10;;;27.40;48.30;;;;;;5091569;28;20036;-66
2022/06/08 12:29:16;;;;;;;2.35;0.03;;;27.40;48.80;;;;;;5095172;28;20532;-65
2022/06/08 12:31:45;;;;;;;0.15;0.15;;;27.40;48.00;;;;;;5090717;28;20117;-65
2022/06/08 12:34:34;;;;;;;0.20;0.10;;;27.50;48.00;;;;;;5093289;28;20040;-65
2022/06/08 12:37:36;;;;;;;1.08;0.30;;;27.60;48.00;;;;;;5097260;28;20580;-65
2022/06/08 12:40:39;;;;;;;0.52;0.38;;;27.60;47.90;;;;;;5090424;28;20529;-66
2022/06/08 12:43:19;;;;;;;0.93;0.15;;;27.70;47.80;;;;;;5089922;28;20476;-66
2022/06/08 12:46:04;;;;;;;3.97;0.35;;;27.70;47.70;;;;;;5098098;28;20121;-66
2022/06/08 12:48:44;;;;;;;3.17;0.20;;;27.70;47.60;;;;;;5092249;28;20040;-66
2022/06/08 12:51:23;;;;;;;0.77;0.10;;;27.80;47.60;;;;;;5096705;28;20048;-66
2022/06/08 12:53:51;;;;;;;0.60;0.10;;;27.80;47.60;;;;;;5092960;28;20035;-66
2022/06/08 12:56:19;;;;;;;1.58;0.28;;;27.80;47.60;;;;;;5081892;28;20488;-66
2022/06/08 12:58:47;;;;;;;3.05;0.13;;;27.80;47.40;;;;;;5089979;28;20043;-66
2022/06/08 13:01:15;;;;;;;0.45;0.20;;;27.90;47.30;;;;;;5097746;28;20059;-65
2022/06/08 13:03:44;;;;;;;0.55;0.10;;;27.90;47.30;;;;;;5082577;28;20044;-66
2022/06/08 13:06:12;;;;;;;1.13;0.50;;;27.90;47.20;;;;;;5096824;28;20042;-65
2022/06/08 13:08:40;;;;;;;1.00;0.10;;;28.00;47.20;;;;;;5096612;28;20046;-66
2022/06/08 13:11:12;;;;;;;1.45;0.20;;;28.00;47.00;;;;;;5092828;28;20051;-66
2022/06/08 13:13:41;;;;;;;0.57;0.20;;;28.10;47.00;;;;;;5097058;28;20119;-65
2022/06/08 13:16:15;;;;;;;1.15;0.20;;;28.10;47.00;;;;;;5093979;28;20412;-66
2022/06/08 13:18:43;;;;;;;0.73;0.20;;;28.10;46.90;;;;;;5101139;28;20044;-66
2022/06/08 13:21:12;;;;;;;0.77;0.30;;;28.10;46.90;;;;;;5101965;28;20604;-66
2022/06/08 13:23:40;;;;;;;1.85;0.32;;;28.10;46.80;;;;;;5103828;28;20039;-65
2022/06/08 13:26:13;;;;;;;2.05;0.40;;;28.10;46.80;;;;;;5089376;28;20043;-66
2022/06/08 13:28:40;;;;;;;1.23;0.40;;;28.10;46.80;;;;;;5094745;28;20044;-65
2022/06/08 13:31:09;;;;;;;2.67;0.50;;;28.10;46.70;;;;;;5095281;28;20131;-65
2022/06/08 13:36:25;;;;;;;1.25;0.77;;;28.10;46.70;;;;;;5095978;28;20050;-66
2022/06/08 13:38:57;;;;;;;0.85;0.30;;;28.10;46.70;;;;;;5100188;28;20081;-65
2022/06/08 13:41:24;;;;;;;1.83;0.20;;;28.10;46.70;;;;;;5088334;28;20117;-66